createdAt,value
2022-12-13T00:01:28.898Z,32.50
2022-12-13T00:03:57.779Z,36.90
2022-12-13T00:06:25.282Z,36.60
2022-12-13T00:08:52.812Z,36.40
2022-12-13T00:11:19.833Z,38.92
2022-12-13T00:13:48.093Z,34.10
2022-12-13T00:16:22.717Z,31.52
2022-12-13T00:18:52.659Z,32.38
2022-12-13T00:21:22.439Z,30.73
2022-12-13T00:23:49.812Z,30.33
2022-12-13T00:26:22.727Z,29.90
2022-12-13T00:28:51.307Z,26.80
2022-12-13T00:31:53.337Z,28.30
2022-12-13T00:34:06.350Z,27.73
2022-12-13T00:36:33.459Z,25.83
2022-12-13T00:39:01.025Z,27.92
2022-12-13T00:41:30.542Z,27.42
2022-12-13T00:43:58.974Z,24.50
2022-12-13T00:46:26.922Z,26.50
2022-12-13T00:48:56.074Z,25.00
2022-12-13T00:51:24.050Z,23.17
2022-12-13T00:53:51.369Z,26.23
2022-12-13T00:56:21.945Z,24.85
2022-12-13T00:58:52.158Z,24.85
2022-12-13T01:01:22.384Z,27.77
2022-12-13T01:03:49.691Z,28.25
2022-12-13T01:06:23.038Z,26.88
2022-12-13T01:08:49.917Z,25.88
2022-12-13T01:11:17.150Z,27.27
2022-12-13T01:13:44.659Z,28.92
2022-12-13T01:16:13.133Z,31.27
2022-12-13T01:18:40.653Z,30.92
2022-12-13T01:21:15.180Z,27.60
2022-12-13T01:23:42.622Z,26.48
2022-12-13T01:26:12.823Z,27.00
2022-12-13T01:28:40.122Z,28.50
2022-12-13T01:31:10.262Z,24.55
2022-12-13T01:33:37.758Z,29.42
2022-12-13T01:36:07.167Z,31.80
2022-12-13T01:38:37.680Z,29.20
2022-12-13T01:41:17.082Z,31.52
2022-12-13T01:43:48.157Z,30.20
2022-12-13T01:46:17.308Z,34.22
2022-12-13T01:48:51.494Z,31.98
2022-12-13T01:51:21.453Z,29.67
2022-12-13T01:53:50.619Z,29.42
2022-12-13T01:56:26.744Z,33.65
2022-12-13T01:58:55.862Z,27.13
2022-12-13T02:01:24.790Z,32.53
2022-12-13T02:03:51.672Z,26.88
2022-12-13T02:06:38.851Z,29.58
2022-12-13T02:09:07.714Z,25.27
2022-12-13T02:11:38.230Z,31.65
2022-12-13T02:14:05.601Z,28.23
2022-12-13T02:16:50.329Z,33.63
2022-12-13T02:19:32.365Z,27.67
2022-12-13T02:22:19.693Z,28.30
2022-12-13T02:25:04.311Z,30.20
2022-12-13T02:27:49.159Z,26.92
2022-12-13T02:30:24.672Z,28.08
2022-12-13T02:32:54.469Z,29.13
2022-12-13T02:38:56.257Z,27.63
2022-12-13T02:41:36.524Z,31.63
2022-12-13T02:44:30.739Z,28.15
2022-12-13T02:47:12.555Z,26.88
2022-12-13T02:49:43.969Z,26.73
2022-12-13T02:52:13.566Z,28.35
2022-12-13T02:54:49.544Z,25.88
2022-12-13T02:57:38.684Z,25.80
2022-12-13T03:00:08.117Z,26.25
2022-12-13T03:03:01.545Z,26.10
2022-12-13T03:06:13.101Z,23.95
2022-12-13T03:08:51.494Z,29.70
2022-12-13T03:11:20.044Z,28.10
2022-12-13T03:14:00.350Z,26.08
2022-12-13T03:16:43.105Z,26.55
2022-12-13T03:19:12.211Z,33.20
2022-12-13T03:21:48.212Z,30.00
2022-12-13T03:24:20.552Z,28.80
2022-12-13T03:26:49.307Z,26.95
2022-12-13T03:29:23.395Z,32.45
2022-12-13T03:31:51.752Z,32.92
2022-12-13T03:34:22.419Z,31.65
2022-12-13T03:36:50.805Z,36.70
2022-12-13T03:39:18.428Z,26.88
2022-12-13T03:41:45.291Z,31.42
2022-12-13T03:44:12.152Z,28.17
2022-12-13T03:46:39.086Z,27.77
2022-12-13T03:49:06.070Z,33.80
2022-12-13T03:51:32.884Z,30.45
2022-12-13T03:53:59.757Z,33.03
2022-12-13T03:56:26.519Z,35.17
2022-12-13T03:58:53.923Z,28.90
2022-12-13T04:01:22.162Z,25.48
2022-12-13T04:03:49.195Z,30.77
2022-12-13T04:06:22.116Z,31.73
2022-12-13T04:08:51.420Z,30.60
2022-12-13T04:11:42.805Z,25.60
2022-12-13T04:14:10.807Z,27.45
2022-12-13T04:16:37.761Z,28.70
2022-12-13T04:19:04.733Z,28.52
2022-12-13T04:21:31.532Z,30.50
2022-12-13T04:24:00.947Z,27.90
2022-12-13T04:26:28.656Z,30.15
2022-12-13T04:28:55.715Z,31.25
2022-12-13T04:31:23.350Z,25.95
2022-12-13T04:33:50.595Z,28.25
2022-12-13T04:36:31.910Z,25.90
2022-12-13T04:39:01.560Z,27.63
2022-12-13T04:41:33.928Z,31.70
2022-12-13T04:44:02.060Z,26.02
2022-12-13T04:46:29.211Z,31.90
2022-12-13T04:48:57.239Z,27.70
2022-12-13T04:51:24.193Z,30.00
2022-12-13T04:53:51.302Z,31.58
2022-12-13T04:56:19.873Z,29.42
2022-12-13T04:58:46.835Z,27.15
2022-12-13T05:01:13.866Z,35.70
2022-12-13T05:03:40.803Z,28.90
2022-12-13T05:06:26.783Z,28.02
2022-12-13T05:08:54.629Z,25.10
2022-12-13T05:11:27.288Z,33.20
2022-12-13T05:14:02.868Z,30.67
2022-12-13T05:16:30.318Z,27.65
2022-12-13T05:18:57.178Z,30.67
2022-12-13T05:21:24.210Z,28.08
2022-12-13T05:23:50.989Z,24.35
2022-12-13T05:26:17.830Z,26.45
2022-12-13T05:28:44.855Z,27.67
2022-12-13T05:31:23.353Z,28.80
2022-12-13T05:33:52.110Z,25.95
2022-12-13T05:36:19.431Z,27.20
2022-12-13T05:38:46.498Z,28.13
2022-12-13T05:41:19.594Z,28.35
2022-12-13T05:43:46.382Z,24.92
2022-12-13T05:46:13.934Z,28.75
2022-12-13T05:48:41.284Z,29.42
2022-12-13T05:51:11.795Z,28.27
2022-12-13T05:53:42.717Z,29.83
2022-12-13T05:56:11.153Z,26.08
2022-12-13T05:58:39.378Z,29.23
2022-12-13T06:01:12.222Z,27.83
2022-12-13T06:03:40.004Z,27.50
2022-12-13T06:06:10.591Z,27.35
2022-12-13T06:08:37.655Z,26.58
2022-12-13T06:11:10.050Z,34.05
2022-12-13T06:13:43.537Z,29.95
2022-12-13T06:16:22.987Z,31.33
2022-12-13T06:19:01.009Z,32.75
2022-12-13T06:21:41.750Z,29.40
2022-12-13T06:24:17.943Z,35.10
2022-12-13T06:26:45.973Z,29.05
2022-12-13T06:29:23.673Z,36.90
2022-12-13T06:31:53.908Z,34.25
2022-12-13T06:34:20.806Z,28.77
2022-12-13T06:36:47.893Z,36.63
2022-12-13T06:39:15.819Z,29.63
2022-12-13T06:41:42.805Z,31.00
2022-12-13T06:44:09.590Z,31.25
2022-12-13T06:46:36.423Z,28.63
2022-12-13T06:49:07.802Z,31.55
2022-12-13T06:51:35.108Z,30.67
2022-12-13T06:54:02.683Z,29.23
2022-12-13T06:56:30.395Z,30.40
2022-12-13T06:59:01.379Z,28.77
2022-12-13T07:01:37.712Z,32.58
2022-12-13T07:04:30.288Z,29.75
2022-12-13T07:06:53.367Z,32.72
2022-12-13T07:09:20.324Z,30.75
2022-12-13T07:11:51.972Z,36.00
2022-12-13T07:14:20.223Z,31.45
2022-12-13T07:16:47.180Z,27.85
2022-12-13T07:19:14.049Z,30.88
2022-12-13T07:21:51.512Z,28.60
2022-12-13T07:24:18.655Z,27.40
2022-12-13T07:26:45.456Z,24.55
2022-12-13T07:29:12.230Z,33.13
2022-12-13T07:31:39.102Z,35.33
2022-12-13T07:34:05.980Z,35.45
2022-12-13T07:36:32.732Z,34.40
2022-12-13T07:38:59.685Z,29.77
2022-12-13T07:41:27.346Z,29.38
2022-12-13T07:43:56.148Z,31.52
2022-12-13T07:46:32.333Z,28.35
2022-12-13T07:49:02.910Z,27.73
2022-12-13T07:51:29.794Z,33.58
2022-12-13T07:53:57.640Z,26.67
2022-12-13T07:56:24.415Z,27.58
2022-12-13T07:58:51.327Z,30.23
2022-12-13T08:01:18.633Z,28.30
2022-12-13T08:03:48.359Z,30.15
2022-12-13T08:06:15.654Z,31.83
2022-12-13T08:08:42.579Z,28.58
2022-12-13T08:11:11.779Z,28.98
2022-12-13T08:13:41.022Z,28.63
2022-12-13T08:16:27.429Z,30.27
2022-12-13T08:19:03.119Z,28.27
2022-12-13T08:21:56.774Z,31.42
2022-12-13T08:24:26.563Z,27.40
2022-12-13T08:27:01.121Z,25.50
2022-12-13T08:29:35.322Z,27.90
2022-12-13T08:32:09.492Z,29.02
2022-12-13T08:34:36.668Z,25.30
2022-12-13T08:37:04.673Z,28.40
2022-12-13T08:39:39.478Z,25.55
2022-12-13T08:42:19.726Z,27.38
2022-12-13T08:44:49.191Z,27.70
2022-12-13T08:47:22.514Z,28.73
2022-12-13T08:49:51.005Z,25.83
2022-12-13T08:52:19.534Z,28.23
2022-12-13T08:54:46.323Z,23.15
2022-12-13T08:57:13.120Z,23.88
2022-12-13T08:59:39.882Z,28.63
2022-12-13T09:02:06.755Z,26.88
2022-12-13T09:04:33.755Z,23.88
2022-12-13T09:07:01.608Z,24.95
2022-12-13T09:09:29.794Z,31.23
2022-12-13T09:11:59.713Z,23.50
2022-12-13T09:14:33.971Z,25.23
2022-12-13T09:17:02.884Z,24.10
2022-12-13T09:19:36.797Z,27.45
2022-12-13T09:22:05.830Z,28.10
2022-12-13T09:24:41.548Z,27.08
2022-12-13T09:27:27.441Z,27.67
2022-12-13T09:29:54.964Z,25.33
2022-12-13T09:32:22.526Z,25.15
2022-12-13T09:34:49.551Z,25.42
2022-12-13T09:37:23.205Z,23.20
2022-12-13T09:39:55.027Z,25.17
2022-12-13T09:42:30.449Z,24.63
2022-12-13T09:45:22.006Z,23.13
2022-12-13T09:47:51.356Z,27.30
2022-12-13T09:50:26.507Z,23.10
2022-12-13T09:53:00.235Z,27.02
2022-12-13T09:55:44.055Z,22.90
2022-12-13T09:58:30.208Z,22.83
2022-12-13T10:00:58.626Z,21.30
2022-12-13T10:03:26.810Z,22.90
2022-12-13T10:06:02.103Z,24.20
2022-12-13T10:08:37.298Z,20.48
2022-12-13T10:11:04.552Z,22.55
2022-12-13T10:13:48.769Z,21.48
2022-12-13T10:16:38.213Z,22.52
2022-12-13T10:19:28.982Z,19.58
2022-12-13T10:22:01.212Z,22.25
2022-12-13T10:24:36.404Z,21.35
2022-12-13T10:27:17.081Z,19.83
2022-12-13T10:30:06.430Z,21.65
2022-12-13T10:32:47.951Z,20.58
2022-12-13T10:35:30.351Z,20.50
2022-12-13T10:38:02.713Z,18.38
2022-12-13T10:40:33.976Z,19.38
2022-12-13T10:43:18.579Z,17.73
2022-12-13T10:45:59.185Z,18.80
2022-12-13T10:48:28.726Z,19.48
2022-12-13T10:51:02.929Z,18.30
2022-12-13T10:53:33.644Z,20.17
2022-12-13T10:56:02.340Z,19.50
2022-12-13T10:58:42.254Z,22.75
2022-12-13T11:01:11.067Z,18.13
2022-12-13T11:03:38.251Z,17.30
2022-12-13T11:06:14.219Z,19.25
2022-12-13T11:08:41.761Z,19.33
2022-12-13T11:11:10.178Z,22.90
2022-12-13T11:13:55.719Z,21.10
2022-12-13T11:16:33.903Z,19.23
2022-12-13T11:19:05.470Z,19.83
2022-12-13T11:21:35.071Z,18.45
2022-12-13T11:24:05.557Z,15.90
2022-12-13T11:26:35.461Z,19.13
2022-12-13T11:29:36.226Z,16.60
2022-12-13T11:32:11.959Z,19.30
2022-12-13T11:35:06.422Z,16.48
2022-12-13T11:37:42.499Z,20.02
2022-12-13T11:40:20.422Z,17.90
2022-12-13T11:42:55.983Z,15.23
2022-12-13T11:45:29.617Z,16.83
2022-12-13T11:48:10.597Z,17.75
2022-12-13T11:50:41.268Z,16.08
2022-12-13T11:53:40.981Z,18.95
2022-12-13T11:56:26.790Z,16.55
2022-12-13T11:59:22.384Z,20.67
2022-12-13T12:02:17.817Z,17.10
2022-12-13T12:05:00.407Z,19.67
2022-12-13T12:07:35.964Z,16.33
2022-12-13T12:10:27.052Z,17.10
2022-12-13T12:13:04.688Z,16.60
2022-12-13T12:15:41.413Z,19.23
2022-12-13T12:18:15.714Z,18.55
2022-12-13T12:20:43.069Z,16.50
2022-12-13T12:23:28.145Z,16.90
2022-12-13T12:26:16.940Z,16.77
2022-12-13T12:29:21.534Z,17.38
2022-12-13T12:32:07.011Z,16.83
2022-12-13T12:34:39.924Z,13.30
2022-12-13T12:37:28.431Z,17.73
2022-12-13T12:40:15.279Z,16.92
2022-12-13T12:43:14.454Z,17.42
2022-12-13T12:46:02.964Z,15.90
2022-12-13T12:48:58.603Z,17.30
2022-12-13T12:51:49.604Z,15.90
2022-12-13T12:54:26.154Z,15.65
2022-12-13T12:57:17.157Z,18.92
2022-12-13T13:00:01.461Z,17.95
2022-12-13T13:03:01.529Z,15.55
2022-12-13T13:06:04.436Z,18.35
2022-12-13T13:08:55.508Z,14.50
2022-12-13T13:11:33.746Z,16.70
2022-12-13T13:14:28.372Z,17.95
2022-12-13T13:16:56.362Z,17.20
2022-12-13T13:19:32.277Z,18.65
2022-12-13T13:22:01.381Z,17.55
2022-12-13T13:24:31.370Z,15.90
2022-12-13T13:27:19.919Z,34.15
2022-12-13T13:29:46.871Z,15.07
2022-12-13T13:32:28.356Z,17.25
2022-12-13T13:35:34.132Z,16.20
2022-12-13T13:38:07.223Z,23.17
2022-12-13T13:40:36.711Z,20.67
2022-12-13T13:43:06.652Z,20.00
2022-12-13T13:45:58.711Z,18.92
2022-12-13T13:48:51.474Z,17.98
2022-12-13T13:52:16.829Z,16.35
2022-12-13T13:54:42.224Z,20.45
2022-12-13T13:57:45.618Z,17.33
2022-12-13T14:00:44.411Z,17.63
2022-12-13T14:03:46.120Z,16.70
2022-12-13T14:06:51.077Z,19.00
2022-12-13T14:09:53.357Z,16.85
2022-12-13T14:12:49.122Z,19.30
2022-12-13T14:15:28.747Z,17.33
2022-12-13T14:18:33.885Z,17.90
2022-12-13T14:21:03.953Z,16.95
2022-12-13T14:23:39.783Z,21.47
2022-12-13T14:26:29.983Z,18.00
2022-12-13T14:29:02.534Z,22.50
2022-12-13T14:31:47.796Z,16.90
2022-12-13T14:34:21.227Z,19.90
2022-12-13T14:37:05.033Z,18.95
2022-12-13T14:39:36.182Z,21.38
2022-12-13T14:42:23.370Z,19.75
2022-12-13T14:44:50.615Z,21.45
2022-12-13T14:47:18.888Z,20.88
2022-12-13T14:49:55.126Z,25.17
2022-12-13T14:52:31.573Z,22.13
2022-12-13T14:55:01.008Z,21.63
2022-12-13T14:57:30.336Z,20.70
2022-12-13T14:59:58.922Z,20.55
2022-12-13T15:02:32.311Z,23.23
2022-12-13T15:05:05.441Z,21.73
2022-12-13T15:07:41.356Z,19.10
2022-12-13T15:10:22.704Z,24.08
2022-12-13T15:12:52.259Z,24.70
2022-12-13T15:15:32.227Z,22.25
2022-12-13T15:18:08.102Z,22.45
2022-12-13T15:20:41.949Z,20.83
2022-12-13T15:23:21.485Z,19.92
2022-12-13T15:26:01.886Z,24.75
2022-12-13T15:28:32.821Z,28.33
2022-12-13T15:31:01.922Z,22.17
2022-12-13T15:33:35.157Z,22.92
2022-12-13T15:36:15.582Z,23.33
2022-12-13T15:38:57.431Z,23.83
2022-12-13T15:41:29.666Z,20.10
2022-12-13T15:44:00.509Z,23.60
2022-12-13T15:46:30.754Z,25.33
2022-12-13T15:49:02.743Z,21.20
2022-12-13T15:51:30.875Z,27.20
2022-12-13T15:54:05.038Z,23.95
2022-12-13T15:56:41.689Z,21.77
2022-12-13T15:59:27.956Z,21.73
2022-12-13T16:01:58.480Z,22.00
2022-12-13T16:04:32.735Z,24.25
2022-12-13T16:07:00.681Z,23.88
2022-12-13T16:09:35.579Z,23.75
2022-12-13T16:12:06.796Z,28.90
2022-12-13T16:14:48.940Z,24.58
2022-12-13T16:17:29.510Z,23.70
2022-12-13T16:20:02.105Z,24.75
2022-12-13T16:22:32.931Z,23.20
2022-12-13T16:25:02.526Z,22.92
2022-12-13T16:27:29.393Z,23.48
2022-12-13T16:29:56.766Z,22.27
2022-12-13T16:32:23.946Z,23.63
2022-12-13T16:34:50.744Z,25.20
2022-12-13T16:37:25.527Z,26.45
2022-12-13T16:39:54.056Z,35.53
2022-12-13T16:42:21.085Z,22.58
2022-12-13T16:45:01.615Z,24.27
2022-12-13T16:47:46.365Z,27.10
2022-12-13T16:50:18.660Z,23.95
2022-12-13T16:52:46.504Z,20.20
2022-12-13T16:55:13.730Z,24.05
2022-12-13T16:57:40.628Z,33.28
2022-12-13T17:00:10.999Z,27.85
2022-12-13T17:02:38.145Z,37.92
2022-12-13T17:05:05.857Z,31.73
2022-12-13T17:07:35.420Z,34.33
2022-12-13T17:10:02.956Z,35.10
2022-12-13T17:12:29.822Z,28.33
2022-12-13T17:14:56.652Z,26.73
2022-12-13T17:17:23.515Z,30.38
2022-12-13T17:19:50.343Z,29.33
2022-12-13T17:22:17.211Z,34.40
2022-12-13T17:24:44.023Z,30.65
2022-12-13T17:27:11.154Z,28.70
2022-12-13T17:29:38.035Z,30.05
2022-12-13T17:32:05.688Z,32.00
2022-12-13T17:34:32.825Z,31.15
2022-12-13T17:36:59.722Z,32.88
2022-12-13T17:39:26.624Z,36.10
2022-12-13T17:41:55.140Z,32.50
2022-12-13T17:44:24.104Z,29.70
2022-12-13T17:46:54.734Z,32.85
2022-12-13T17:49:22.750Z,29.40
2022-12-13T17:51:52.690Z,32.78
2022-12-13T17:54:21.881Z,28.48
2022-12-13T17:56:49.621Z,32.10
2022-12-13T17:59:17.430Z,29.65
2022-12-13T18:01:45.175Z,26.58
2022-12-13T18:04:12.713Z,28.20
2022-12-13T18:06:40.481Z,30.33
2022-12-13T18:09:08.578Z,27.20
2022-12-13T18:11:35.948Z,27.08
2022-12-13T18:14:08.411Z,28.50
2022-12-13T18:16:38.506Z,24.52
2022-12-13T18:19:12.518Z,25.20
2022-12-13T18:21:40.039Z,29.48
2022-12-13T18:24:07.663Z,27.98
2022-12-13T18:26:34.972Z,24.90
2022-12-13T18:29:03.243Z,22.05
2022-12-13T18:31:30.732Z,26.80
2022-12-13T18:33:57.980Z,25.23
2022-12-13T18:36:25.983Z,21.67
2022-12-13T18:38:53.191Z,23.58
2022-12-13T18:41:22.805Z,24.77
2022-12-13T18:43:59.431Z,26.55
2022-12-13T18:46:27.970Z,25.55
2022-12-13T18:48:55.143Z,29.15
2022-12-13T18:51:22.047Z,28.88
2022-12-13T18:53:49.031Z,32.60
2022-12-13T18:56:19.052Z,22.45
2022-12-13T18:58:50.648Z,30.05
2022-12-13T19:01:22.783Z,22.63
2022-12-13T19:03:51.016Z,27.00
2022-12-13T19:06:21.056Z,25.58
2022-12-13T19:08:49.541Z,24.42
2022-12-13T19:11:18.000Z,25.92
2022-12-13T19:13:44.846Z,30.27
2022-12-13T19:16:18.320Z,32.35
2022-12-13T19:18:45.466Z,26.95
2022-12-13T19:21:15.709Z,25.90
2022-12-13T19:23:43.388Z,25.23
2022-12-13T19:26:13.204Z,25.67
2022-12-13T19:28:41.528Z,27.33
2022-12-13T19:31:10.952Z,29.10
2022-12-13T19:33:38.085Z,30.98
2022-12-13T19:36:06.077Z,29.02
2022-12-13T19:38:33.506Z,24.02
2022-12-13T19:41:00.771Z,30.08
2022-12-13T19:43:28.508Z,26.58
2022-12-13T19:45:55.952Z,28.52
2022-12-13T19:48:24.805Z,24.17
2022-12-13T19:50:51.925Z,27.42
2022-12-13T19:53:19.171Z,26.70
2022-12-13T19:55:48.193Z,30.67
2022-12-13T19:58:15.335Z,25.30
2022-12-13T20:00:42.268Z,34.63
2022-12-13T20:03:09.205Z,28.15
2022-12-13T20:05:36.469Z,28.42
2022-12-13T20:08:03.400Z,29.88
2022-12-13T20:10:34.158Z,30.85
2022-12-13T20:13:01.009Z,30.08
2022-12-13T20:15:28.276Z,25.65
2022-12-13T20:17:56.587Z,25.63
2022-12-13T20:20:31.498Z,30.98
2022-12-13T20:23:03.227Z,31.40
2022-12-13T20:25:30.029Z,32.28
2022-12-13T20:27:57.082Z,30.58
2022-12-13T20:30:26.439Z,31.33
2022-12-13T20:32:54.894Z,35.55
2022-12-13T20:35:21.644Z,34.97
2022-12-13T20:37:49.011Z,35.78
2022-12-13T20:40:15.903Z,32.33
2022-12-13T20:42:42.883Z,33.42
2022-12-13T20:45:10.709Z,35.60
2022-12-13T20:47:38.381Z,33.38
2022-12-13T20:50:05.853Z,35.83
2022-12-13T20:52:32.666Z,36.92
2022-12-13T20:54:59.715Z,36.65
2022-12-13T20:57:26.688Z,38.40
2022-12-13T20:59:53.619Z,38.80
2022-12-13T21:02:20.652Z,40.47
2022-12-13T21:04:47.679Z,36.55
2022-12-13T21:07:34.503Z,33.88
2022-12-13T21:10:01.588Z,33.67
2022-12-13T21:12:28.529Z,33.83
2022-12-13T21:14:55.389Z,35.17
2022-12-13T21:17:22.180Z,36.55
2022-12-13T21:19:49.182Z,36.08
2022-12-13T21:22:16.202Z,36.47
2022-12-13T21:24:42.985Z,37.90
2022-12-13T21:27:09.893Z,38.00
2022-12-13T21:29:36.729Z,37.13
2022-12-13T21:32:03.703Z,39.08
2022-12-13T21:34:31.190Z,42.70
2022-12-13T21:36:58.496Z,42.25
2022-12-13T21:39:29.589Z,41.55
2022-12-13T21:41:57.587Z,40.10
2022-12-13T21:44:24.439Z,44.40
2022-12-13T21:49:38.983Z,48.15
2022-12-13T21:52:06.148Z,41.85
2022-12-13T21:54:33.300Z,47.08
2022-12-13T21:57:19.398Z,46.17
2022-12-13T21:59:46.515Z,49.92
2022-12-13T22:02:18.817Z,51.58
2022-12-13T22:04:51.857Z,54.65
2022-12-13T22:07:28.791Z,51.97
2022-12-13T22:09:56.792Z,47.15
2022-12-13T22:12:25.224Z,49.72
2022-12-13T22:14:53.896Z,50.00
2022-12-13T22:17:27.000Z,53.78
2022-12-13T22:19:59.123Z,52.85
2022-12-13T22:22:26.555Z,51.72
2022-12-13T22:24:54.164Z,52.40
2022-12-13T22:27:25.578Z,55.88
2022-12-13T22:29:56.059Z,51.70
2022-12-13T22:32:24.159Z,53.45
2022-12-13T22:34:51.959Z,55.22
2022-12-13T22:37:18.960Z,56.90
2022-12-13T22:39:45.848Z,49.67
2022-12-13T22:42:12.669Z,57.05
2022-12-13T22:44:39.462Z,50.50
2022-12-13T22:47:06.717Z,54.47
2022-12-13T22:49:33.727Z,56.30
2022-12-13T22:52:00.706Z,52.65
2022-12-13T22:54:27.621Z,56.13
2022-12-13T22:56:54.600Z,59.05
2022-12-13T22:59:21.812Z,59.25
2022-12-13T23:01:50.551Z,62.33
2022-12-13T23:04:17.497Z,54.15
2022-12-13T23:06:44.647Z,57.17
2022-12-13T23:09:13.473Z,60.60
2022-12-13T23:11:58.964Z,58.83
2022-12-13T23:14:32.208Z,58.38
2022-12-13T23:16:59.838Z,56.00
2022-12-13T23:19:50.010Z,55.35
2022-12-13T23:22:14.589Z,55.60
2022-12-13T23:24:41.661Z,54.90
2022-12-13T23:27:08.945Z,50.13
2022-12-13T23:29:35.848Z,52.95
2022-12-13T23:32:02.885Z,54.95
2022-12-13T23:34:30.509Z,57.05
2022-12-13T23:36:57.282Z,52.10
2022-12-13T23:39:24.235Z,54.80
2022-12-13T23:41:51.055Z,52.30
2022-12-13T23:44:18.010Z,53.88
2022-12-13T23:46:48.837Z,56.65
2022-12-13T23:49:16.693Z,51.85
2022-12-13T23:51:44.582Z,56.65
2022-12-13T23:54:17.816Z,57.88
2022-12-13T23:56:45.336Z,54.58
2022-12-13T23:59:12.334Z,58.33
